KABY

Southwest Georgia Regional Airport

Albany, Georgia, USA
METAR KABY 191953Z 28008KT 250V310 10SM CLR 36/22 A2996 RMK AO2 SLP143 T03560217
Observed Flight Rules
Jun-19 @ 19:53 UTC (23 minutes ago) Visual Flight Rules
Wind Visibility Clouds
280° at 8 knots 10 miles
  • Clear skies
Temperatures Readings
Current 36°C / 97°F
Dewpoint 22°C / 72°F
Humidity 44%
Altimeter 29.96" Hg
Pressure 1014.3 hPa
Elevation 58
METAR KABY 191953Z 28008KT 250V310 10SM CLR 36/22 A2996 RMK AO2 SLP143 T03560217
Observed Flight Rules
Jun-19 @ 19:53 UTC
(23 minutes ago)
VFR
Wind Visibility
280° at 8 knots 10 miles
Clouds
  • Clear skies
Temperature Dewpoint
36°C / 97°F 22°C / 72°F
Humidity Altimeter Pressure
44% 29.96" Hg 1014.3 hPa